Time;durP1;ratioP1;P1;durP2;ratioP2;P2;SDS_P1;SDS_P2;PMS_P1;PMS_P2;Temp;Humidity;BMP_temperature;BMP_pressure;BME280_temperature;BME280_humidity;BME280_pressure;Samples;Min_cycle;Max_cycle;Signal;HPM_P1;HPM_P2
2021/12/26 00:01:07;;;;;;;3.03;2.08;;;-5.40;98.10;;;;;;5006052;28;20050;-64
2021/12/26 00:03:35;;;;;;;5.15;1.77;;;-5.40;98.10;;;;;;4973518;28;20046;-63
2021/12/26 00:06:07;;;;;;;1.15;0.90;;;-5.40;97.90;;;;;;4973682;28;20038;-63
2021/12/26 00:08:36;;;;;;;2.08;1.08;;;-5.40;96.90;;;;;;4973410;28;20071;-64
2021/12/26 00:11:06;;;;;;;2.42;1.25;;;-5.30;95.90;;;;;;5006034;28;20034;-63
2021/12/26 00:13:33;;;;;;;2.13;1.52;;;-5.30;95.90;;;;;;4973725;28;20391;-64
2021/12/26 00:15:59;;;;;;;2.47;1.27;;;-5.30;95.70;;;;;;4959768;28;20513;-64
2021/12/26 00:18:26;;;;;;;2.72;1.42;;;-5.30;95.40;;;;;;4986467;28;20070;-63
2021/12/26 00:20:52;;;;;;;1.77;1.15;;;-5.30;95.10;;;;;;4951322;28;20051;-63
2021/12/26 00:23:18;;;;;;;2.25;1.13;;;-5.20;94.30;;;;;;4950781;29;20298;-63
2021/12/26 00:25:45;;;;;;;5.30;1.60;;;-5.20;93.90;;;;;;4966739;28;20055;-63
2021/12/26 00:28:11;;;;;;;3.25;1.13;;;-5.20;93.70;;;;;;4950736;29;20404;-63
2021/12/26 00:30:38;;;;;;;2.00;1.00;;;-5.20;93.50;;;;;;4934719;29;20039;-63
2021/12/26 00:33:05;;;;;;;2.72;1.27;;;-5.20;92.90;;;;;;4950799;28;20039;-63
2021/12/26 00:35:31;;;;;;;2.95;1.10;;;-5.20;92.70;;;;;;4950534;29;20078;-64
2021/12/26 00:37:57;;;;;;;2.25;1.08;;;-5.20;92.60;;;;;;4950453;28;20078;-63
2021/12/26 00:40:26;;;;;;;3.00;1.17;;;-5.20;92.30;;;;;;4949895;28;20051;-63
2021/12/26 00:42:54;;;;;;;2.33;1.27;;;-5.20;92.20;;;;;;4951709;28;20446;-63
2021/12/26 00:45:20;;;;;;;2.47;1.20;;;-5.20;91.90;;;;;;4953586;28;20043;-63
2021/12/26 00:47:46;;;;;;;5.90;1.13;;;-5.20;91.40;;;;;;4969735;28;20125;-63
2021/12/26 00:50:15;;;;;;;2.33;1.10;;;-5.20;91.40;;;;;;4967592;28;20062;-63
2021/12/26 00:52:41;;;;;;;1.60;1.13;;;-5.20;91.20;;;;;;4969410;28;20042;-63
2021/12/26 00:55:10;;;;;;;1.98;1.10;;;-5.30;91.40;;;;;;4969430;28;20089;-64
2021/12/26 00:57:37;;;;;;;1.85;1.20;;;-5.30;91.40;;;;;;4969379;28;20133;-63
2021/12/26 01:00:07;;;;;;;3.08;0.98;;;-5.30;91.40;;;;;;4969770;28;20046;-63
2021/12/26 01:02:32;;;;;;;2.05;0.95;;;-5.30;91.30;;;;;;5002140;28;20111;-63
2021/12/26 01:04:58;;;;;;;1.75;0.98;;;-5.30;91.30;;;;;;4985551;28;20133;-63
2021/12/26 01:07:43;;;;;;;2.88;1.13;;;-5.40;91.30;;;;;;4969066;28;20128;-63
2021/12/26 01:10:09;;;;;;;1.80;0.93;;;-5.40;90.90;;;;;;4969323;28;20054;-63
2021/12/26 01:12:37;;;;;;;1.08;0.68;;;-5.30;90.30;;;;;;4969503;28;20039;-63
2021/12/26 01:15:07;;;;;;;3.25;0.95;;;-5.20;89.30;;;;;;4969274;28;20510;-63
2021/12/26 01:17:34;;;;;;;;;;;-5.20;88.60;;;;;;4969568;28;20369;-63
2021/12/26 01:20:03;;;;;;;2.00;0.90;;;-5.10;87.60;;;;;;4999545;28;19925;-63
2021/12/26 01:22:29;;;;;;;1.83;0.40;;;-5.10;87.90;;;;;;4969088;28;20046;-64
2021/12/26 01:24:56;;;;;;;3.58;1.20;;;-5.20;87.40;;;;;;4969309;28;20050;-63
2021/12/26 01:27:26;;;;;;;2.08;1.20;;;-5.20;87.10;;;;;;4969000;28;20047;-63
2021/12/26 01:29:53;;;;;;;3.40;1.38;;;-5.20;87.60;;;;;;5001654;28;20097;-63
2021/12/26 01:32:19;;;;;;;1.65;0.90;;;-5.20;86.90;;;;;;4969246;28;20157;-63
2021/12/26 01:34:46;;;;;;;2.85;1.05;;;-5.20;87.00;;;;;;5001577;28;20122;-63
2021/12/26 01:37:12;;;;;;;1.10;0.63;;;-5.20;86.00;;;;;;4968971;28;20049;-63
2021/12/26 01:39:38;;;;;;;3.63;0.95;;;-5.10;86.00;;;;;;4968995;28;20515;-63
2021/12/26 01:42:05;;;;;;;2.90;1.20;;;-5.20;85.90;;;;;;4968876;28;20043;-63
2021/12/26 01:44:33;;;;;;;3.70;0.90;;;-5.20;85.90;;;;;;5001411;28;20491;-63
2021/12/26 01:46:59;;;;;;;2.45;1.15;;;-5.20;86.00;;;;;;4969138;28;20136;-63
2021/12/26 01:49:29;;;;;;;2.17;0.88;;;-5.30;85.90;;;;;;4966537;28;20074;-63
2021/12/26 01:51:58;;;;;;;2.75;1.35;;;-5.30;85.90;;;;;;4969719;28;20143;-63
2021/12/26 01:54:39;;;;;;;1.90;1.10;;;-5.30;85.90;;;;;;4956234;28;20049;-63
2021/12/26 01:57:09;;;;;;;2.15;1.33;;;-5.30;85.70;;;;;;4972166;28;20136;-63
2021/12/26 01:59:36;;;;;;;;;;;-5.40;85.50;;;;;;4972857;28;20092;-63
2021/12/26 02:02:02;;;;;;;1.83;1.08;;;-5.40;85.30;;;;;;4972397;28;20263;-63
2021/12/26 02:04:29;;;;;;;3.03;0.73;;;-5.40;84.80;;;;;;4972067;28;20129;-63
2021/12/26 02:07:00;;;;;;;1.55;1.00;;;-5.40;85.30;;;;;;4972028;28;20039;-64
2021/12/26 02:09:26;;;;;;;1.33;0.80;;;-5.40;85.30;;;;;;4972297;28;20399;-63
2021/12/26 02:11:52;;;;;;;1.85;0.82;;;-5.40;84.60;;;;;;4972156;28;20046;-63
2021/12/26 02:14:19;;;;;;;1.38;0.90;;;-5.40;84.10;;;;;;4971915;28;20042;-63
2021/12/26 02:16:45;;;;;;;2.15;1.58;;;-5.30;83.40;;;;;;4975907;28;20121;-63
2021/12/26 02:19:11;;;;;;;1.70;0.88;;;-5.40;83.10;;;;;;4992160;28;20046;-63
2021/12/26 02:24:23;;;;;;;2.42;1.38;;;-5.40;83.00;;;;;;4994649;28;20137;-63
2021/12/26 02:29:33;;;;;;;3.25;0.77;;;-5.30;82.40;;;;;;4994712;28;20041;-63
2021/12/26 02:31:59;;;;;;;2.70;0.85;;;-5.40;82.90;;;;;;4978186;28;20438;-63
2021/12/26 02:34:25;;;;;;;3.75;1.35;;;-5.40;83.10;;;;;;4994228;28;20045;-63
2021/12/26 02:36:51;;;;;;;1.60;0.90;;;-5.40;83.50;;;;;;4994481;28;20038;-63
2021/12/26 02:39:17;;;;;;;0.70;0.52;;;-5.30;81.50;;;;;;4994161;28;20529;-63
2021/12/26 02:41:43;;;;;;;1.38;1.00;;;-5.20;81.60;;;;;;4994436;28;20042;-63
2021/12/26 02:44:09;;;;;;;1.58;0.90;;;-5.20;81.00;;;;;;4994368;28;20038;-63
2021/12/26 02:46:35;;;;;;;2.17;0.90;;;-5.20;81.40;;;;;;4994013;28;20065;-63
2021/12/26 02:49:01;;;;;;;2.47;1.20;;;-5.20;81.30;;;;;;5024451;28;20034;-63
2021/12/26 02:51:27;;;;;;;2.33;1.00;;;-5.20;81.60;;;;;;5010652;28;20128;-63
2021/12/26 02:53:52;;;;;;;2.72;1.10;;;-5.20;81.30;;;;;;5010287;28;20042;-63
2021/12/26 02:56:19;;;;;;;2.13;1.10;;;-5.20;81.60;;;;;;4994006;28;20041;-63
2021/12/26 02:58:45;;;;;;;3.30;1.00;;;-5.20;81.40;;;;;;5026594;28;20106;-63
2021/12/26 03:01:20;;;;;;;4.05;1.15;;;-5.20;81.60;;;;;;5026731;28;20073;-63
2021/12/26 03:03:46;;;;;;;2.42;1.38;;;-5.20;81.80;;;;;;4993036;28;20077;-63
2021/12/26 03:06:39;;;;;;;8.38;1.27;;;-5.30;82.30;;;;;;4994077;28;20088;-63
2021/12/26 03:09:03;;;;;;;1.90;0.98;;;-5.40;82.40;;;;;;5025868;28;20460;-63
2021/12/26 03:11:28;;;;;;;4.47;1.20;;;-5.40;82.40;;;;;;5011262;28;20053;-62
2021/12/26 03:13:54;;;;;;;1.88;0.98;;;-5.30;82.30;;;;;;5010030;28;20034;-63
2021/12/26 03:16:20;;;;;;;2.08;1.10;;;-5.30;81.50;;;;;;4993965;28;20042;-63
2021/12/26 03:18:46;;;;;;;2.35;1.23;;;-5.30;81.90;;;;;;4990958;28;20090;-63
2021/12/26 03:21:12;;;;;;;1.73;1.10;;;-5.30;82.10;;;;;;5010028;28;20042;-62
2021/12/26 03:23:38;;;;;;;3.65;1.20;;;-5.30;81.80;;;;;;4993928;28;20066;-63
2021/12/26 03:26:06;;;;;;;5.25;1.60;;;-5.30;82.00;;;;;;4993790;28;20068;-63
2021/12/26 03:28:32;;;;;;;2.13;1.10;;;-5.30;81.60;;;;;;5009982;28;20406;-63
2021/12/26 03:30:59;;;;;;;1.48;0.90;;;-5.40;81.80;;;;;;4993483;28;20042;-62
2021/12/26 03:33:26;;;;;;;2.13;1.10;;;-5.30;82.20;;;;;;4993791;28;20057;-63
2021/12/26 03:35:52;;;;;;;2.47;1.30;;;-5.30;82.10;;;;;;5009980;28;20086;-63
2021/12/26 03:38:21;;;;;;;2.38;1.65;;;-5.40;82.30;;;;;;5026185;28;20053;-63
2021/12/26 03:40:47;;;;;;;3.40;1.13;;;-5.40;82.40;;;;;;5026564;28;20449;-63
2021/12/26 03:43:13;;;;;;;2.35;1.05;;;-5.50;82.40;;;;;;5009612;28;20042;-63
2021/12/26 03:45:41;;;;;;;1.92;1.00;;;-5.50;83.00;;;;;;4968844;28;20038;-63
2021/12/26 03:48:06;;;;;;;2.15;1.00;;;-5.50;83.10;;;;;;4987619;28;20583;-63
2021/12/26 03:50:33;;;;;;;2.50;1.13;;;-5.50;83.10;;;;;;4973675;28;20095;-63
2021/12/26 03:53:02;;;;;;;3.33;1.08;;;-5.40;82.20;;;;;;4973974;28;20042;-63
2021/12/26 03:55:28;;;;;;;2.20;1.15;;;-5.40;81.50;;;;;;5006367;28;20042;-63
2021/12/26 03:57:54;;;;;;;2.22;1.10;;;-5.30;81.50;;;;;;4973951;28;20046;-62
2021/12/26 04:00:23;;;;;;;3.13;1.27;;;-5.30;81.50;;;;;;5006265;28;20394;-63
2021/12/26 04:02:49;;;;;;;2.42;1.20;;;-5.30;81.60;;;;;;4973586;28;20050;-63
2021/12/26 04:05:15;;;;;;;2.80;1.08;;;-5.40;82.40;;;;;;4957331;28;20129;-63
2021/12/26 04:07:42;;;;;;;3.58;1.33;;;-5.50;82.20;;;;;;5006197;28;20415;-63
2021/12/26 04:10:09;;;;;;;1.88;1.10;;;-5.50;82.20;;;;;;4957388;28;20122;-63
2021/12/26 04:12:37;;;;;;;2.67;1.70;;;-5.40;82.40;;;;;;5005871;28;20099;-63
2021/12/26 04:15:06;;;;;;;2.38;0.95;;;-5.40;82.80;;;;;;5005655;28;20072;-63
2021/12/26 04:17:32;;;;;;;4.00;2.08;;;-5.40;81.60;;;;;;4973196;28;20086;-63
2021/12/26 04:19:58;;;;;;;2.13;1.00;;;-5.40;81.40;;;;;;4970870;28;20078;-63
2021/12/26 04:22:23;;;;;;;1.58;1.02;;;-5.40;81.70;;;;;;5006032;28;20103;-63
2021/12/26 04:24:49;;;;;;;1.65;1.02;;;-5.40;81.70;;;;;;4957314;28;20078;-62
2021/12/26 04:27:15;;;;;;;3.28;1.40;;;-5.40;81.70;;;;;;4989392;28;20579;-62
2021/12/26 04:29:41;;;;;;;2.45;1.30;;;-5.40;81.90;;;;;;4972988;28;20125;-62
2021/12/26 04:32:07;;;;;;;3.03;1.20;;;-5.40;82.10;;;;;;4957294;28;20104;-63
2021/12/26 04:34:33;;;;;;;2.60;1.13;;;-5.40;82.70;;;;;;4989266;28;20034;-63
2021/12/26 04:36:59;;;;;;;3.65;1.35;;;-5.40;82.50;;;;;;4973275;28;20049;-63
2021/12/26 04:39:24;;;;;;;3.25;1.25;;;-5.40;82.50;;;;;;4973213;28;20057;-63
2021/12/26 04:41:50;;;;;;;3.58;2.00;;;-5.40;82.70;;;;;;4972936;28;20099;-63
2021/12/26 04:44:17;;;;;;;4.28;1.20;;;-5.40;82.90;;;;;;5005348;28;20110;-62
2021/12/26 04:46:42;;;;;;;2.80;1.15;;;-5.40;83.10;;;;;;4989805;28;20041;-63
2021/12/26 04:49:08;;;;;;;1.55;0.82;;;-5.40;83.00;;;;;;4989737;28;20041;-62
2021/12/26 04:51:34;;;;;;;2.67;1.20;;;-5.50;83.20;;;;;;4992279;28;20061;-62
2021/12/26 04:54:00;;;;;;;4.65;1.27;;;-5.50;82.50;;;;;;4992224;28;20038;-63
2021/12/26 04:56:26;;;;;;;3.10;1.50;;;-5.40;82.90;;;;;;4992336;28;20124;-62
2021/12/26 04:58:52;;;;;;;2.85;1.20;;;-5.50;83.00;;;;;;4992287;28;20150;-62
2021/12/26 05:01:17;;;;;;;2.63;1.50;;;-5.50;83.20;;;;;;4992064;28;20052;-62
2021/12/26 05:03:44;;;;;;;3.33;1.40;;;-5.50;83.20;;;;;;4992083;28;20077;-62
2021/12/26 05:06:09;;;;;;;3.10;1.40;;;-5.50;83.50;;;;;;4992001;28;20509;-62
2021/12/26 05:08:35;;;;;;;3.00;1.83;;;-5.50;83.70;;;;;;5008379;28;20034;-62
2021/12/26 05:11:01;;;;;;;2.38;1.10;;;-5.50;84.10;;;;;;4992062;28;20130;-62
2021/12/26 05:13:27;;;;;;;5.95;1.52;;;-5.50;84.20;;;;;;4991873;28;20129;-62
2021/12/26 05:15:53;;;;;;;3.13;1.58;;;-5.60;84.50;;;;;;4992066;28;20041;-62
2021/12/26 05:18:19;;;;;;;1.92;0.90;;;-5.60;84.60;;;;;;4989338;28;20371;-62
2021/12/26 05:20:45;;;;;;;2.92;1.33;;;-5.60;84.60;;;;;;5008364;28;20050;-62
2021/12/26 05:23:11;;;;;;;3.35;1.75;;;-5.60;84.60;;;;;;5024618;28;20413;-62
2021/12/26 05:25:37;;;;;;;2.90;1.98;;;-5.60;84.70;;;;;;4992064;28;20050;-62
2021/12/26 05:28:03;;;;;;;1.55;0.88;;;-5.60;84.70;;;;;;4991044;28;20549;-62
2021/12/26 05:30:29;;;;;;;2.53;1.20;;;-5.60;84.30;;;;;;4991949;28;20042;-62
2021/12/26 05:32:55;;;;;;;2.60;1.60;;;-5.60;84.20;;;;;;5024561;28;20034;-62
2021/12/26 05:35:21;;;;;;;4.03;1.30;;;-5.70;84.30;;;;;;5024359;28;20042;-62
2021/12/26 05:37:48;;;;;;;3.22;2.30;;;-5.70;84.80;;;;;;5008243;28;20053;-62
2021/12/26 05:40:14;;;;;;;2.47;1.67;;;-5.70;84.80;;;;;;4991687;28;20478;-63
2021/12/26 05:42:41;;;;;;;3.78;1.70;;;-5.60;84.90;;;;;;5008119;28;20474;-62
2021/12/26 05:45:09;;;;;;;4.85;1.70;;;-5.70;85.10;;;;;;4991739;28;20405;-62
2021/12/26 05:47:35;;;;;;;2.17;1.23;;;-5.70;85.40;;;;;;4975432;28;20046;-62
2021/12/26 05:50:03;;;;;;;3.00;1.67;;;-5.70;85.30;;;;;;4989114;28;20046;-62
2021/12/26 05:52:29;;;;;;;2.33;1.50;;;-5.80;85.40;;;;;;4991769;28;20041;-62
2021/12/26 05:54:55;;;;;;;2.83;1.20;;;-5.80;85.60;;;;;;4991659;28;20486;-62
2021/12/26 05:57:20;;;;;;;5.15;1.63;;;-5.80;85.70;;;;;;4975357;28;20042;-62
2021/12/26 05:59:46;;;;;;;2.38;1.30;;;-5.80;86.10;;;;;;4991310;28;20049;-62
2021/12/26 06:02:12;;;;;;;3.97;1.35;;;-5.80;86.10;;;;;;4975301;28;20042;-62
2021/12/26 06:04:39;;;;;;;2.22;1.20;;;-5.80;86.40;;;;;;4991503;28;20052;-62
2021/12/26 06:07:05;;;;;;;3.08;1.40;;;-5.90;86.50;;;;;;4975282;28;20115;-62
2021/12/26 06:09:31;;;;;;;2.97;1.50;;;-5.90;86.60;;;;;;4991305;28;20111;-62
2021/12/26 06:11:57;;;;;;;5.07;1.80;;;-5.90;86.70;;;;;;4991109;28;20184;-62
2021/12/26 06:14:23;;;;;;;2.42;1.05;;;-5.80;86.90;;;;;;5008818;28;20067;-62
2021/12/26 06:16:49;;;;;;;4.22;1.80;;;-5.90;87.00;;;;;;4990960;28;20091;-62
2021/12/26 06:19:14;;;;;;;2.88;1.45;;;-5.80;87.10;;;;;;4988831;28;20049;-62
2021/12/26 06:21:40;;;;;;;3.58;2.15;;;-5.80;87.00;;;;;;4991305;28;20121;-62
2021/12/26 06:24:06;;;;;;;3.35;1.08;;;-5.80;86.90;;;;;;4991142;28;20249;-62
2021/12/26 06:26:33;;;;;;;3.75;1.55;;;-5.80;87.70;;;;;;4990972;28;20042;-62
2021/12/26 06:28:59;;;;;;;2.13;1.23;;;-5.80;86.90;;;;;;4991033;28;20038;-62
2021/12/26 06:31:24;;;;;;;1.98;1.15;;;-5.80;86.80;;;;;;4974702;28;20042;-62
2021/12/26 06:33:50;;;;;;;3.80;1.77;;;-5.70;86.90;;;;;;4991343;28;20125;-62
2021/12/26 06:36:17;;;;;;;3.47;1.73;;;-5.80;86.90;;;;;;4974906;28;20096;-62
2021/12/26 06:38:44;;;;;;;3.92;1.48;;;-5.80;87.00;;;;;;4975442;28;20042;-62
2021/12/26 06:41:12;;;;;;;2.33;1.52;;;-5.70;87.20;;;;;;4994138;28;20046;-62
2021/12/26 06:43:39;;;;;;;2.65;1.58;;;-5.80;87.20;;;;;;4994474;28;20041;-62
2021/12/26 06:46:05;;;;;;;3.10;1.48;;;-5.80;87.30;;;;;;4977873;28;20048;-62
2021/12/26 06:48:32;;;;;;;3.03;1.48;;;-5.70;87.30;;;;;;4991672;28;20307;-62
2021/12/26 06:50:59;;;;;;;4.68;1.63;;;-5.80;87.30;;;;;;4994375;28;20137;-62
2021/12/26 06:53:24;;;;;;;3.22;1.63;;;-5.80;87.50;;;;;;5026894;28;20082;-62
2021/12/26 06:55:50;;;;;;;2.63;1.42;;;-5.80;87.60;;;;;;5026679;28;20081;-62
2021/12/26 06:58:17;;;;;;;2.72;0.95;;;-5.80;87.60;;;;;;4994008;28;20046;-62
2021/12/26 07:00:43;;;;;;;1.80;1.27;;;-5.80;87.60;;;;;;4993880;28;20048;-62
2021/12/26 07:03:09;;;;;;;3.30;1.60;;;-5.80;87.50;;;;;;4993864;28;20520;-62
2021/12/26 07:05:35;;;;;;;6.53;3.25;;;-5.80;87.50;;;;;;4993790;28;20112;-62
2021/12/26 07:08:02;;;;;;;4.18;1.77;;;-5.70;87.10;;;;;;4977713;28;20482;-62
2021/12/26 07:10:28;;;;;;;2.53;1.40;;;-5.70;87.00;;;;;;4993831;28;20128;-62
2021/12/26 07:12:54;;;;;;;3.72;1.90;;;-5.70;87.00;;;;;;4993801;28;20117;-62
2021/12/26 07:15:20;;;;;;;4.60;3.03;;;-5.70;87.20;;;;;;4993914;28;20045;-62
2021/12/26 07:17:46;;;;;;;3.72;1.80;;;-5.70;87.30;;;;;;4993522;28;20426;-62
2021/12/26 07:20:14;;;;;;;4.90;1.65;;;-5.70;87.40;;;;;;5007905;28;20057;-62
2021/12/26 07:22:42;;;;;;;3.42;2.20;;;-5.80;87.50;;;;;;4993566;28;20050;-62
2021/12/26 07:25:08;;;;;;;3.65;1.77;;;-5.80;88.30;;;;;;4993622;28;20159;-62
2021/12/26 07:27:34;;;;;;;1.90;1.20;;;-5.70;87.60;;;;;;5009743;28;20042;-62
2021/12/26 07:30:03;;;;;;;3.13;1.70;;;-5.80;87.80;;;;;;4993569;28;20046;-62
2021/12/26 07:32:30;;;;;;;5.25;2.08;;;-5.80;87.80;;;;;;4993408;28;20128;-62
2021/12/26 07:34:57;;;;;;;4.00;1.90;;;-5.80;88.00;;;;;;4993536;28;20037;-62
2021/12/26 07:37:24;;;;;;;4.97;2.47;;;-5.70;88.20;;;;;;5026229;28;20049;-62
2021/12/26 07:39:50;;;;;;;3.78;2.80;;;-5.70;88.30;;;;;;5009710;28;20042;-61
2021/12/26 07:42:16;;;;;;;3.42;1.77;;;-5.70;88.40;;;;;;4993528;28;20052;-61
2021/12/26 07:44:42;;;;;;;2.58;1.50;;;-5.70;88.30;;;;;;4992851;28;20186;-61
2021/12/26 07:47:08;;;;;;;1.63;1.02;;;-5.60;87.50;;;;;;4973956;28;20133;-61
2021/12/26 07:49:33;;;;;;;2.30;1.70;;;-5.50;86.50;;;;;;4970996;28;20046;-61
2021/12/26 07:52:00;;;;;;;2.50;1.17;;;-5.50;86.20;;;;;;4973902;28;20038;-61
2021/12/26 07:54:26;;;;;;;2.97;1.70;;;-5.50;86.30;;;;;;4974111;28;20046;-61
2021/12/26 07:56:54;;;;;;;2.65;1.35;;;-5.40;86.60;;;;;;4989816;28;20049;-62
2021/12/26 07:59:20;;;;;;;5.30;2.05;;;-5.50;86.70;;;;;;4973682;28;20054;-61
2021/12/26 08:01:46;;;;;;;3.33;1.77;;;-5.50;87.00;;;;;;5006306;28;20398;-61
2021/12/26 08:04:14;;;;;;;3.30;1.85;;;-5.50;87.10;;;;;;4991086;28;20038;-61
2021/12/26 08:06:41;;;;;;;4.22;1.85;;;-5.40;87.10;;;;;;5005752;28;20491;-61
2021/12/26 08:09:07;;;;;;;4.10;1.80;;;-5.40;87.10;;;;;;4973498;28;20042;-61
2021/12/26 08:11:33;;;;;;;2.28;1.38;;;-5.40;87.20;;;;;;5006229;28;20398;-61
2021/12/26 08:13:59;;;;;;;3.90;1.80;;;-5.30;87.20;;;;;;4973405;28;20304;-61
2021/12/26 08:16:26;;;;;;;4.55;2.03;;;-5.30;87.20;;;;;;4973394;28;20053;-61
2021/12/26 08:18:53;;;;;;;3.47;1.67;;;-5.30;87.20;;;;;;4970838;28;20482;-61
2021/12/26 08:21:19;;;;;;;2.58;1.63;;;-5.30;87.10;;;;;;5005925;28;20451;-61
2021/12/26 08:23:45;;;;;;;2.22;1.48;;;-5.20;87.20;;;;;;4957276;28;20121;-61
2021/12/26 08:26:11;;;;;;;3.60;2.40;;;-5.00;87.30;;;;;;5005720;28;20042;-61
2021/12/26 08:28:37;;;;;;;5.93;2.40;;;-4.80;87.10;;;;;;5005610;28;20084;-61
2021/12/26 08:31:03;;;;;;;3.67;1.98;;;-4.60;86.60;;;;;;4973493;28;20057;-61
2021/12/26 08:33:29;;;;;;;3.58;1.92;;;-4.30;86.60;;;;;;4989631;28;20371;-61
2021/12/26 08:35:55;;;;;;;4.75;2.10;;;-3.80;87.80;;;;;;4957037;28;20100;-61
2021/12/26 08:38:21;;;;;;;5.88;2.17;;;-3.20;88.00;;;;;;4989378;28;20046;-62
2021/12/26 08:40:49;;;;;;;3.65;1.70;;;-2.70;84.50;;;;;;4973347;28;20406;-61
2021/12/26 08:43:16;;;;;;;3.30;1.80;;;-2.20;81.70;;;;;;4989154;28;20100;-61
2021/12/26 08:45:42;;;;;;;3.53;2.15;;;-1.90;80.30;;;;;;4981614;28;20049;-61
2021/12/26 08:48:08;;;;;;;2.88;1.67;;;-1.60;76.80;;;;;;5023093;28;20034;-61
2021/12/26 08:50:34;;;;;;;2.97;2.15;;;-1.30;77.60;;;;;;5008623;28;20053;-61
2021/12/26 08:53:00;;;;;;;4.32;1.80;;;-1.00;76.30;;;;;;4989392;28;20686;-62
2021/12/26 08:55:25;;;;;;;4.28;1.98;;;-0.80;74.30;;;;;;5023618;28;20062;-62
2021/12/26 08:57:52;;;;;;;3.83;2.22;;;-0.50;76.10;;;;;;5094366;28;20055;-62
2021/12/26 09:00:20;;;;;;;4.57;2.50;;;-0.30;73.90;;;;;;5027956;28;20069;-62
2021/12/26 09:02:46;;;;;;;5.18;3.35;;;0.00;72.00;;;;;;4974867;28;20047;-62
2021/12/26 09:05:12;;;;;;;4.97;2.47;;;0.40;73.70;;;;;;4976089;28;20053;-62
2021/12/26 09:07:39;;;;;;;3.00;1.83;;;0.70;73.40;;;;;;4991814;28;20292;-62
2021/12/26 09:10:06;;;;;;;5.30;2.95;;;1.00;71.60;;;;;;4991983;28;20049;-62
2021/12/26 09:12:32;;;;;;;5.03;2.78;;;1.40;69.70;;;;;;5060498;28;20067;-62
2021/12/26 09:14:58;;;;;;;5.82;2.53;;;1.70;68.60;;;;;;5094165;28;20036;-62
2021/12/26 09:17:24;;;;;;;4.85;2.47;;;2.00;67.50;;;;;;5093861;28;20062;-62
2021/12/26 09:19:50;;;;;;;5.00;2.20;;;2.10;67.00;;;;;;5091673;28;20052;-62
2021/12/26 09:22:17;;;;;;;4.93;2.65;;;2.20;66.80;;;;;;5094028;28;20092;-62
2021/12/26 09:24:44;;;;;;;4.25;2.78;;;2.20;64.10;;;;;;5094092;28;20043;-62
2021/12/26 09:27:11;;;;;;;4.40;2.42;;;2.30;64.40;;;;;;5094595;28;20044;-62
2021/12/26 09:29:37;;;;;;;4.93;2.47;;;2.50;64.80;;;;;;5094332;28;20157;-62
2021/12/26 09:32:04;;;;;;;3.75;2.28;;;2.70;65.40;;;;;;5093861;28;20115;-62
2021/12/26 09:34:33;;;;;;;4.63;2.45;;;2.90;63.00;;;;;;5077529;28;20416;-61
2021/12/26 09:37:00;;;;;;;4.10;2.55;;;2.90;63.30;;;;;;5094145;28;20047;-62
2021/12/26 09:39:27;;;;;;;4.75;2.42;;;3.10;63.90;;;;;;5077013;28;20048;-61
2021/12/26 09:41:53;;;;;;;5.72;2.70;;;3.20;62.70;;;;;;5093872;28;20047;-61
2021/12/26 09:44:20;;;;;;;5.15;3.20;;;3.50;62.60;;;;;;5112189;28;20380;-61
2021/12/26 09:46:46;;;;;;;4.65;2.72;;;3.70;62.60;;;;;;5002704;28;20096;-62
2021/12/26 09:49:12;;;;;;;5.75;2.80;;;3.90;61.50;;;;;;5063750;28;20131;-61
2021/12/26 09:51:39;;;;;;;6.68;2.90;;;3.90;58.50;;;;;;5094127;28;20123;-62
2021/12/26 09:54:06;;;;;;;4.28;2.88;;;4.00;59.50;;;;;;5077187;28;20138;-62
2021/12/26 09:56:32;;;;;;;5.28;2.83;;;4.10;59.30;;;;;;5094040;28;20039;-62
2021/12/26 09:59:14;;;;;;;7.20;2.80;;;4.10;61.40;;;;;;5093611;28;20036;-62
2021/12/26 10:01:43;;;;;;;4.97;2.92;;;4.20;59.90;;;;;;5077210;28;20046;-62
2021/12/26 10:04:20;;;;;;;4.78;2.90;;;4.30;61.70;;;;;;5093586;28;20499;-62
2021/12/26 10:06:49;;;;;;;6.10;2.90;;;4.00;60.60;;;;;;5093689;28;20043;-62
2021/12/26 10:09:16;;;;;;;4.95;2.80;;;3.40;59.00;;;;;;5093490;28;20032;-61
2021/12/26 10:11:44;;;;;;;4.38;2.85;;;2.60;58.60;;;;;;5093919;28;20040;-61
2021/12/26 10:14:16;;;;;;;5.30;2.83;;;1.50;60.00;;;;;;5096349;28;20050;-61
2021/12/26 10:16:45;;;;;;;5.68;2.85;;;0.60;61.50;;;;;;5097372;28;20118;-62
2021/12/26 10:19:11;;;;;;;4.82;2.72;;;-0.20;63.90;;;;;;5078175;28;20113;-61
2021/12/26 10:21:48;;;;;;;4.65;3.13;;;-0.60;65.80;;;;;;5080628;28;20079;-61
2021/12/26 10:24:23;;;;;;;6.15;3.28;;;-0.90;67.20;;;;;;5097298;28;20044;-61
2021/12/26 10:26:52;;;;;;;4.90;2.88;;;-1.00;68.60;;;;;;5097261;28;20122;-62
2021/12/26 10:29:34;;;;;;;6.38;3.60;;;-0.90;69.40;;;;;;5097070;28;20562;-62
2021/12/26 10:32:21;;;;;;;6.25;3.35;;;-0.60;69.30;;;;;;5080610;28;20039;-62
2021/12/26 10:34:52;;;;;;;3.95;2.65;;;0.40;69.60;;;;;;5115296;28;20458;-62
2021/12/26 10:37:25;;;;;;;6.20;3.25;;;1.70;69.00;;;;;;5097155;28;20487;-63
2021/12/26 10:39:55;;;;;;;6.07;3.10;;;2.90;66.50;;;;;;5097102;28;20051;-62
2021/12/26 10:42:30;;;;;;;4.90;2.85;;;3.80;64.20;;;;;;5097372;28;20035;-63
2021/12/26 10:45:03;;;;;;;4.35;2.70;;;4.30;62.20;;;;;;5083618;28;20039;-63
2021/12/26 10:47:30;;;;;;;3.30;2.20;;;4.50;57.70;;;;;;4979713;28;20464;-63
2021/12/26 10:49:58;;;;;;;4.82;2.80;;;3.80;56.90;;;;;;5094484;28;20075;-64
2021/12/26 10:52:38;;;;;;;4.93;2.88;;;2.70;58.70;;;;;;5097117;28;20035;-64
2021/12/26 10:55:11;;;;;;;4.55;2.72;;;2.30;60.00;;;;;;5096776;28;20044;-64
2021/12/26 10:57:49;;;;;;;6.78;3.53;;;2.10;61.30;;;;;;5096844;28;20105;-64
2021/12/26 11:00:32;;;;;;;4.40;2.30;;;2.40;62.10;;;;;;5096980;28;20082;-64
2021/12/26 11:03:05;;;;;;;6.00;2.70;;;2.70;61.50;;;;;;5096527;28;20043;-64
2021/12/26 11:05:41;;;;;;;7.65;3.42;;;3.10;61.50;;;;;;5079905;28;20373;-64
2021/12/26 11:08:11;;;;;;;6.32;2.97;;;3.60;61.20;;;;;;5096428;28;20082;-64
2021/12/26 11:10:37;;;;;;;;;;;4.20;61.20;;;;;;5096899;28;20143;-65
2021/12/26 11:13:05;;;;;;;5.43;3.03;;;4.50;59.40;;;;;;5079609;28;19978;-65
2021/12/26 11:15:37;;;;;;;5.97;2.97;;;4.70;58.60;;;;;;5079805;28;20036;-65
2021/12/26 11:18:11;;;;;;;5.15;3.53;;;4.80;57.70;;;;;;5096188;28;20052;-65
2021/12/26 11:20:39;;;;;;;4.72;3.17;;;4.90;58.80;;;;;;5096024;28;20087;-65
2021/12/26 11:23:11;;;;;;;3.35;2.53;;;5.20;58.50;;;;;;5079389;28;20051;-66
2021/12/26 11:25:41;;;;;;;6.15;3.80;;;5.20;58.10;;;;;;5095429;28;20086;-66
2021/12/26 11:28:09;;;;;;;8.50;4.00;;;5.20;57.60;;;;;;5096091;28;20036;-65
2021/12/26 11:30:34;;;;;;;5.80;3.80;;;5.10;57.50;;;;;;5096553;28;20391;-66
2021/12/26 11:33:02;;;;;;;6.20;3.88;;;5.00;59.50;;;;;;5096230;28;20039;-66
2021/12/26 11:35:30;;;;;;;7.38;4.53;;;4.90;60.40;;;;;;5096184;28;20032;-66
2021/12/26 11:37:58;;;;;;;5.72;3.80;;;5.10;60.10;;;;;;5096220;28;20089;-66
2021/12/26 11:40:24;;;;;;;5.45;4.07;;;5.30;59.50;;;;;;5078973;28;20039;-66
2021/12/26 11:43:11;;;;;;;6.15;4.20;;;5.40;60.10;;;;;;5096183;28;20044;-66
2021/12/26 11:45:45;;;;;;;8.27;4.38;;;5.40;60.70;;;;;;5036447;28;20052;-65
2021/12/26 11:48:48;;;;;;;6.47;3.75;;;5.60;61.90;;;;;;5023094;28;20042;-65
2021/12/26 11:51:20;;;;;;;5.65;3.58;;;5.00;60.00;;;;;;5079071;28;20139;-66
2021/12/26 11:54:20;;;;;;;8.15;4.22;;;3.90;60.80;;;;;;5078878;28;20047;-66
2021/12/26 11:57:02;;;;;;;6.07;3.30;;;3.20;62.60;;;;;;5078768;28;20032;-66
2021/12/26 11:59:38;;;;;;;6.68;3.90;;;2.60;64.00;;;;;;5095764;28;20400;-66
2021/12/26 12:02:04;;;;;;;6.20;4.00;;;2.20;64.70;;;;;;5095826;28;20043;-66
2021/12/26 12:04:30;;;;;;;6.20;4.53;;;2.10;66.60;;;;;;5095657;28;20407;-66
2021/12/26 12:07:04;;;;;;;5.57;3.70;;;2.10;67.00;;;;;;5095326;28;20040;-66
2021/12/26 12:09:37;;;;;;;7.38;3.65;;;2.30;68.40;;;;;;5095329;28;20122;-66
2021/12/26 12:12:12;;;;;;;5.97;4.00;;;2.90;67.50;;;;;;5085295;28;20122;-66
2021/12/26 12:14:58;;;;;;;9.05;4.45;;;3.60;66.90;;;;;;4992978;28;20379;-66
2021/12/26 12:17:29;;;;;;;5.15;4.03;;;3.70;65.60;;;;;;4992851;28;20049;-66
2021/12/26 12:20:12;;;;;;;6.72;4.05;;;3.50;65.70;;;;;;4974361;28;20483;-66
2021/12/26 12:23:01;;;;;;;6.70;4.35;;;3.40;66.20;;;;;;4992670;28;20498;-65
2021/12/26 12:25:49;;;;;;;5.43;4.10;;;3.40;65.90;;;;;;4992394;28;20111;-65
2021/12/26 12:28:18;;;;;;;5.60;4.05;;;3.10;65.80;;;;;;4992851;28;20042;-65
2021/12/26 12:30:47;;;;;;;7.22;4.43;;;2.70;66.10;;;;;;4992459;28;20046;-65
2021/12/26 12:33:30;;;;;;;7.38;4.97;;;2.50;67.10;;;;;;4992823;28;20081;-65
2021/12/26 12:36:26;;;;;;;6.30;4.50;;;2.40;67.50;;;;;;4991728;28;20046;-65
2021/12/26 12:38:52;;;;;;;7.45;4.13;;;2.10;67.70;;;;;;4992291;28;20053;-66
2021/12/26 12:41:30;;;;;;;6.82;3.97;;;1.80;68.50;;;;;;4976180;28;20046;-65
2021/12/26 12:43:59;;;;;;;6.07;3.33;;;1.50;69.30;;;;;;5009871;28;20393;-64
2021/12/26 12:46:25;;;;;;;5.75;4.00;;;1.30;70.20;;;;;;4992398;28;20046;-65
2021/12/26 12:49:00;;;;;;;7.68;4.88;;;1.10;71.10;;;;;;5014012;28;20042;-65
2021/12/26 12:51:26;;;;;;;7.25;4.57;;;1.10;71.50;;;;;;4992067;28;20053;-65
2021/12/26 12:53:55;;;;;;;9.38;4.82;;;1.10;71.70;;;;;;4992399;28;20041;-65
2021/12/26 12:56:30;;;;;;;8.55;5.68;;;1.00;72.00;;;;;;4992437;28;20038;-65
2021/12/26 12:59:20;;;;;;;7.97;4.13;;;0.80;73.00;;;;;;4992319;28;20061;-65
2021/12/26 13:02:01;;;;;;;8.20;4.38;;;0.60;73.70;;;;;;4975944;28;20098;-65